Time;durP1;ratioP1;P1;durP2;ratioP2;P2;SDS_P1;SDS_P2;PMS_P1;PMS_P2;Temp;Humidity;BMP_temperature;BMP_pressure;BME280_temperature;BME280_humidity;BME280_pressure;Samples;Min_cycle;Max_cycle;Signal;HPM_P1;HPM_P2
2022/10/05 00:01:26;;;;;;;4.47;1.50;;;16.30;99.90;;;;;;5020245;28;38138;-80
2022/10/05 00:04:18;;;;;;;2.38;1.60;;;16.30;99.90;;;;;;5011016;28;48332;-80
2022/10/05 00:07:11;;;;;;;4.35;1.50;;;16.30;99.90;;;;;;5017687;28;48044;-79
2022/10/05 00:09:47;;;;;;;2.47;1.52;;;16.20;99.90;;;;;;5029465;28;48062;-79
2022/10/05 00:12:19;;;;;;;2.17;1.58;;;16.20;99.90;;;;;;5076624;23;38432;-80
2022/10/05 00:14:47;;;;;;;2.55;1.20;;;16.20;99.90;;;;;;5008595;28;36940;-79
2022/10/05 00:17:25;;;;;;;1.38;1.10;;;16.30;99.90;;;;;;5019783;28;40623;-79
2022/10/05 00:19:56;;;;;;;4.47;1.50;;;16.20;99.90;;;;;;5012819;28;38398;-80
2022/10/05 00:22:38;;;;;;;2.30;0.90;;;16.30;99.90;;;;;;5014727;28;37845;-79
2022/10/05 00:25:19;;;;;;;2.10;1.00;;;16.20;99.90;;;;;;5009938;28;37345;-80
2022/10/05 00:27:59;;;;;;;3.40;1.20;;;16.30;99.90;;;;;;5020851;28;39026;-80
2022/10/05 00:30:32;;;;;;;3.13;1.10;;;16.30;99.90;;;;;;5012502;28;38246;-80
2022/10/05 00:32:58;;;;;;;1.77;1.10;;;16.30;99.90;;;;;;5031569;28;38324;-80
2022/10/05 00:35:28;;;;;;;1.80;1.30;;;16.30;99.90;;;;;;5005710;28;37262;-80
2022/10/05 00:37:55;;;;;;;1.20;1.10;;;16.30;99.90;;;;;;5014614;28;38953;-80
2022/10/05 00:40:36;;;;;;;1.35;1.13;;;16.40;99.90;;;;;;5008572;28;38047;-79
2022/10/05 00:43:21;;;;;;;1.20;0.95;;;16.40;99.90;;;;;;5012470;28;37273;-79
2022/10/05 00:46:06;;;;;;;3.85;1.00;;;16.40;99.90;;;;;;5040268;28;38856;-80
2022/10/05 00:49:08;;;;;;;2.60;0.90;;;16.50;99.90;;;;;;5025022;28;49880;-79
2022/10/05 00:51:36;;;;;;;2.03;1.30;;;16.40;99.90;;;;;;5020805;28;50335;-79
2022/10/05 00:54:18;;;;;;;3.63;1.08;;;16.40;99.90;;;;;;5011474;28;37692;-79
2022/10/05 00:57:09;;;;;;;5.38;1.92;;;16.40;99.90;;;;;;5008628;28;47373;-80
2022/10/05 01:00:06;;;;;;;2.72;2.10;;;16.20;99.90;;;;;;5025481;28;50163;-80
2022/10/05 01:03:00;;;;;;;4.05;3.10;;;16.20;99.90;;;;;;5389751;23;39871;-90
2022/10/05 01:06:03;;;;;;;4.70;4.00;;;16.10;99.90;;;;;;5012350;28;37010;-90
2022/10/05 01:08:57;;;;;;;6.40;4.35;;;16.00;99.90;;;;;;5039741;28;49389;-85
2022/10/05 01:11:36;;;;;;;7.15;4.97;;;16.00;99.90;;;;;;5032257;28;38457;-87
2022/10/05 01:14:21;;;;;;;8.32;5.38;;;15.90;99.90;;;;;;5021885;28;39951;-87
2022/10/05 01:16:56;;;;;;;10.07;6.80;;;15.90;99.90;;;;;;5026891;28;36941;-88
2022/10/05 01:20:02;;;;;;;11.95;5.68;;;15.80;99.90;;;;;;5028103;28;35579;-87
2022/10/05 01:22:40;;;;;;;10.15;5.50;;;15.80;99.90;;;;;;5046229;28;38996;-84
2022/10/05 01:25:32;;;;;;;10.13;6.15;;;15.70;99.90;;;;;;5040621;28;39494;-85
2022/10/05 01:28:30;;;;;;;10.38;5.55;;;15.70;99.90;;;;;;5037473;28;37950;-85
2022/10/05 01:31:25;;;;;;;10.88;5.95;;;15.70;99.90;;;;;;5048233;28;47402;-85
2022/10/05 01:34:05;;;;;;;9.50;5.53;;;15.70;99.90;;;;;;5047299;28;38511;-83
2022/10/05 01:36:41;;;;;;;6.40;5.07;;;15.70;99.90;;;;;;5031003;28;47622;-84
2022/10/05 01:39:31;;;;;;;7.88;4.95;;;15.70;99.90;;;;;;5027677;28;38606;-86
2022/10/05 01:42:09;;;;;;;7.22;5.07;;;15.70;99.90;;;;;;5028716;28;38084;-85
2022/10/05 01:44:48;;;;;;;7.70;4.85;;;15.70;99.90;;;;;;5021965;28;46862;-87
2022/10/05 01:47:24;;;;;;;5.78;4.53;;;15.70;99.90;;;;;;5035161;28;38363;-86
2022/10/05 01:50:03;;;;;;;6.53;5.00;;;15.70;99.90;;;;;;5026957;28;37472;-85
2022/10/05 01:53:01;;;;;;;7.03;4.68;;;15.80;99.90;;;;;;5028659;28;39069;-90
2022/10/05 01:55:46;;;;;;;9.20;5.35;;;15.70;99.90;;;;;;5027504;28;47047;-89
2022/10/05 01:58:24;;;;;;;9.65;5.22;;;15.70;99.90;;;;;;5019726;28;39880;-87
2022/10/05 02:01:13;;;;;;;10.00;5.25;;;15.70;99.90;;;;;;5029273;28;39263;-84
2022/10/05 02:03:57;;;;;;;6.53;4.95;;;15.70;99.90;;;;;;5026827;28;47238;-87
2022/10/05 02:06:31;;;;;;;7.07;5.78;;;15.60;99.90;;;;;;5044450;28;38889;-85
2022/10/05 02:09:01;;;;;;;7.97;5.65;;;15.60;99.90;;;;;;5034640;28;36951;-86
2022/10/05 02:11:28;;;;;;;8.43;5.50;;;15.60;99.90;;;;;;5031573;28;39368;-87
2022/10/05 02:14:05;;;;;;;9.63;6.13;;;15.60;99.90;;;;;;5030343;28;38063;-88
2022/10/05 02:16:44;;;;;;;10.95;5.95;;;15.60;99.90;;;;;;5027537;28;47643;-86
2022/10/05 02:19:29;;;;;;;9.77;6.07;;;15.60;99.90;;;;;;5025141;28;37161;-87
2022/10/05 02:22:05;;;;;;;7.90;6.10;;;15.60;99.90;;;;;;5034230;28;38375;-81
2022/10/05 02:24:39;;;;;;;12.32;6.70;;;15.60;99.90;;;;;;5024925;28;47159;-82
2022/10/05 02:27:09;;;;;;;9.93;7.07;;;15.60;99.90;;;;;;5019881;28;38905;-84
2022/10/05 02:29:40;;;;;;;12.18;7.18;;;15.60;99.90;;;;;;5031057;28;36971;-83
2022/10/05 02:32:12;;;;;;;9.10;6.35;;;15.50;99.90;;;;;;5027691;28;36819;-85
2022/10/05 02:34:41;;;;;;;12.07;6.72;;;15.50;99.90;;;;;;5027982;28;36020;-85
2022/10/05 02:37:49;;;;;;;9.63;6.15;;;15.50;99.90;;;;;;5034747;28;39048;-88
2022/10/05 02:40:35;;;;;;;8.98;5.93;;;15.50;99.90;;;;;;5025891;28;38775;-87
2022/10/05 02:43:18;;;;;;;9.38;5.53;;;15.50;99.90;;;;;;5024107;28;38456;-87
2022/10/05 02:46:03;;;;;;;8.85;5.07;;;15.50;99.90;;;;;;5031487;28;47278;-85
2022/10/05 02:49:13;;;;;;;8.13;5.13;;;15.50;99.90;;;;;;5024404;28;37701;-84
2022/10/05 02:52:17;;;;;;;7.55;5.72;;;15.50;99.90;;;;;;5030879;28;48167;-86
2022/10/05 02:54:49;;;;;;;8.43;6.60;;;15.50;99.90;;;;;;5023941;28;48251;-85
2022/10/05 02:57:29;;;;;;;7.45;5.07;;;15.50;99.90;;;;;;5027256;28;35960;-87
2022/10/05 03:00:06;;;;;;;7.93;5.40;;;15.50;99.90;;;;;;5032163;28;39656;-87
2022/10/05 03:02:56;;;;;;;6.15;5.00;;;15.60;99.90;;;;;;5020798;28;48044;-88
2022/10/05 03:05:32;;;;;;;9.68;4.60;;;15.60;99.90;;;;;;5024471;28;37153;-87
2022/10/05 03:08:25;;;;;;;6.75;5.45;;;15.60;99.90;;;;;;5021165;28;37571;-88
2022/10/05 03:10:56;;;;;;;8.85;5.75;;;15.60;99.90;;;;;;5020408;28;47999;-82
2022/10/05 03:13:34;;;;;;;8.77;6.68;;;15.60;99.90;;;;;;5024803;28;39446;-86
2022/10/05 03:16:06;;;;;;;11.23;6.60;;;15.60;99.90;;;;;;5021576;28;39203;-87
2022/10/05 03:18:51;;;;;;;;;;;15.60;99.90;;;;;;5014252;28;47343;-86
2022/10/05 03:21:52;;;;;;;10.55;6.90;;;15.60;99.90;;;;;;5012868;28;38259;-85
2022/10/05 03:24:34;;;;;;;9.60;7.07;;;15.60;99.90;;;;;;5024353;28;38688;-86
2022/10/05 03:27:21;;;;;;;8.03;6.53;;;15.60;99.90;;;;;;5023903;28;36617;-87
2022/10/05 03:30:13;;;;;;;8.90;6.10;;;15.60;99.90;;;;;;5025315;28;47292;-87
2022/10/05 03:33:08;;;;;;;7.77;4.67;;;15.60;99.90;;;;;;5026232;28;47291;-86
2022/10/05 03:35:43;;;;;;;6.15;3.67;;;15.60;99.90;;;;;;5023883;28;47271;-88
2022/10/05 03:38:24;;;;;;;6.65;3.55;;;15.60;99.90;;;;;;5015523;28;41346;-88
2022/10/05 03:41:09;;;;;;;5.63;3.80;;;15.70;99.90;;;;;;5020816;28;37175;-86
2022/10/05 03:43:47;;;;;;;6.13;3.80;;;15.70;99.90;;;;;;5023325;28;46359;-89
2022/10/05 03:46:24;;;;;;;4.85;4.13;;;15.70;99.90;;;;;;5022848;28;38987;-88
2022/10/05 03:48:56;;;;;;;5.68;4.18;;;15.70;99.90;;;;;;5028809;28;37639;-87
2022/10/05 03:51:33;;;;;;;4.55;3.78;;;15.70;99.90;;;;;;5030063;28;38112;-86
2022/10/05 03:54:19;;;;;;;5.03;3.80;;;15.60;99.90;;;;;;5025546;28;38128;-90
2022/10/05 03:56:56;;;;;;;4.63;3.22;;;15.60;99.90;;;;;;5023555;28;45511;-88
2022/10/05 03:59:28;;;;;;;5.93;3.30;;;15.70;99.90;;;;;;5026895;28;37331;-88
2022/10/05 04:02:01;;;;;;;3.88;3.05;;;15.70;99.90;;;;;;5019369;28;36212;-91
2022/10/05 04:04:35;;;;;;;5.75;2.78;;;15.70;99.90;;;;;;5024222;28;40934;-88
2022/10/05 04:07:02;;;;;;;3.50;2.20;;;15.70;99.90;;;;;;5031008;28;37251;-87
2022/10/05 04:09:42;;;;;;;4.03;2.53;;;15.70;99.90;;;;;;5028193;28;47023;-88
2022/10/05 04:12:12;;;;;;;3.63;2.55;;;15.70;99.90;;;;;;5042356;28;37030;-86
2022/10/05 04:15:01;;;;;;;2.58;2.15;;;15.60;99.90;;;;;;5039987;28;38312;-88
2022/10/05 04:17:39;;;;;;;2.78;2.13;;;15.60;99.90;;;;;;5020672;28;40380;-88
2022/10/05 04:20:17;;;;;;;2.10;1.83;;;15.60;99.90;;;;;;5022599;28;38542;-89
2022/10/05 04:23:06;;;;;;;2.65;1.70;;;15.70;99.90;;;;;;5026687;28;36138;-89
2022/10/05 04:25:39;;;;;;;3.92;1.90;;;15.60;99.90;;;;;;4997949;28;47168;-88
2022/10/05 04:28:25;;;;;;;3.50;1.65;;;15.70;99.90;;;;;;5031756;28;37101;-87
2022/10/05 04:30:53;;;;;;;2.88;1.52;;;15.70;99.90;;;;;;5043193;28;38389;-86
2022/10/05 04:33:20;;;;;;;2.05;1.30;;;15.70;99.90;;;;;;5042167;28;37013;-88
2022/10/05 04:36:11;;;;;;;2.47;1.27;;;15.70;99.90;;;;;;5029093;28;38782;-88
2022/10/05 04:39:12;;;;;;;2.55;0.90;;;15.60;99.90;;;;;;5025948;28;47227;-87
2022/10/05 04:41:59;;;;;;;2.60;1.20;;;15.60;99.90;;;;;;5023102;28;47395;-86
2022/10/05 04:44:52;;;;;;;4.35;2.33;;;15.60;99.90;;;;;;5043632;28;38008;-85
2022/10/05 04:48:02;;;;;;;3.00;1.42;;;15.60;99.90;;;;;;5043263;28;39400;-86
2022/10/05 04:51:00;;;;;;;2.20;1.33;;;15.60;99.90;;;;;;5043240;28;47325;-83
2022/10/05 04:54:12;;;;;;;1.85;1.30;;;15.50;99.90;;;;;;5031077;28;38649;-85
2022/10/05 05:00:23;;;;;;;2.15;1.38;;;15.50;99.90;;;;;;4993826;28;50015;-86
2022/10/05 05:02:49;;;;;;;2.80;1.35;;;15.60;99.90;;;;;;5019413;28;47432;-86
2022/10/05 05:05:44;;;;;;;1.10;1.00;;;15.50;99.90;;;;;;5018013;28;37773;-88
2022/10/05 05:08:48;;;;;;;2.75;0.95;;;15.50;99.90;;;;;;5009932;28;35964;-89
2022/10/05 05:11:56;;;;;;;1.58;0.90;;;15.50;99.90;;;;;;5016398;28;40594;-87
2022/10/05 05:14:40;;;;;;;1.27;1.10;;;15.50;99.90;;;;;;5014782;28;37291;-87
2022/10/05 05:17:16;;;;;;;1.50;1.13;;;15.50;99.90;;;;;;5022758;28;39504;-85
2022/10/05 05:20:07;;;;;;;2.78;1.35;;;15.50;99.90;;;;;;5028038;28;36040;-89
2022/10/05 05:22:39;;;;;;;1.42;1.13;;;15.50;99.90;;;;;;5011868;28;47873;-87
2022/10/05 05:25:14;;;;;;;2.15;0.93;;;15.50;99.90;;;;;;5034605;28;38479;-88
2022/10/05 05:31:26;;;;;;;2.28;1.17;;;15.50;99.90;;;;;;5063172;23;20038;-83
2022/10/05 05:34:05;;;;;;;3.58;1.10;;;15.50;99.90;;;;;;5051624;28;48865;-88
2022/10/05 05:36:37;;;;;;;3.40;1.20;;;15.50;99.90;;;;;;5025460;28;47006;-86
2022/10/05 05:39:12;;;;;;;2.47;1.30;;;15.50;99.90;;;;;;5023874;28;36982;-86
2022/10/05 05:41:54;;;;;;;2.42;1.10;;;15.50;99.90;;;;;;5027288;28;38164;-84
2022/10/05 05:47:36;;;;;;;4.50;1.33;;;15.60;99.90;;;;;;5010877;28;20466;-80
2022/10/05 05:50:17;;;;;;;3.63;1.40;;;15.50;99.90;;;;;;4991787;28;37086;-79
2022/10/05 05:52:52;;;;;;;2.60;1.60;;;15.50;99.90;;;;;;5003997;28;47270;-80
2022/10/05 05:55:23;;;;;;;4.18;2.05;;;15.60;99.90;;;;;;5003188;28;37645;-80
2022/10/05 05:57:58;;;;;;;2.85;1.90;;;15.60;99.90;;;;;;5004826;28;36237;-81
2022/10/05 06:00:37;;;;;;;3.58;1.90;;;15.60;99.90;;;;;;4991665;28;37058;-79
2022/10/05 06:03:23;;;;;;;2.30;1.83;;;15.60;99.90;;;;;;4991783;28;35970;-82
2022/10/05 06:06:00;;;;;;;3.80;1.40;;;15.60;99.90;;;;;;5011920;28;39342;-78
2022/10/05 06:08:35;;;;;;;2.78;1.90;;;15.70;99.90;;;;;;4994342;28;37644;-79
2022/10/05 06:11:09;;;;;;;2.92;2.00;;;15.70;99.90;;;;;;5007258;28;36763;-79
2022/10/05 06:13:39;;;;;;;3.65;1.88;;;15.70;99.90;;;;;;4986978;28;47377;-82
2022/10/05 06:16:33;;;;;;;4.25;1.90;;;15.60;99.90;;;;;;4987782;28;37877;-80
2022/10/05 06:19:08;;;;;;;2.05;1.67;;;15.60;99.90;;;;;;5010576;28;37580;-80
2022/10/05 06:21:55;;;;;;;2.42;1.92;;;15.60;99.90;;;;;;4993263;28;47243;-82
2022/10/05 06:24:25;;;;;;;2.53;1.88;;;15.60;99.90;;;;;;5017751;28;37211;-79
2022/10/05 06:27:24;;;;;;;3.88;1.73;;;15.60;99.90;;;;;;4997165;28;37944;-80
2022/10/05 06:30:21;;;;;;;2.25;1.77;;;15.60;99.90;;;;;;4958115;28;47233;-80
2022/10/05 06:33:15;;;;;;;3.33;1.67;;;15.60;99.90;;;;;;5000526;28;48939;-81
2022/10/05 06:35:53;;;;;;;2.75;1.60;;;15.60;99.90;;;;;;5017695;28;48078;-80
2022/10/05 06:38:22;;;;;;;3.60;1.63;;;15.70;99.90;;;;;;4997262;28;37944;-80
2022/10/05 06:41:19;;;;;;;2.55;1.63;;;15.70;99.90;;;;;;5010630;28;37512;-81
2022/10/05 06:44:03;;;;;;;2.53;1.30;;;15.70;99.90;;;;;;4999923;28;47142;-80
2022/10/05 06:46:51;;;;;;;2.22;1.70;;;15.80;99.90;;;;;;5008239;28;48379;-82
2022/10/05 06:49:19;;;;;;;3.70;1.67;;;15.80;99.90;;;;;;5007453;28;37482;-80
2022/10/05 06:51:54;;;;;;;2.08;1.30;;;15.80;99.90;;;;;;5003914;28;37461;-81
2022/10/05 06:54:33;;;;;;;2.22;1.23;;;15.80;99.90;;;;;;5023708;28;37539;-80
2022/10/05 06:57:17;;;;;;;2.13;1.27;;;15.90;99.90;;;;;;5022049;28;37082;-79
2022/10/05 07:00:08;;;;;;;1.85;1.27;;;15.90;99.90;;;;;;5022216;28;48301;-81
2022/10/05 07:02:44;;;;;;;2.22;1.35;;;15.90;99.90;;;;;;5011909;28;38792;-82
2022/10/05 07:05:18;;;;;;;3.85;1.77;;;15.90;99.90;;;;;;5029189;28;38370;-80
2022/10/05 07:08:29;;;;;;;3.00;2.13;;;15.90;99.90;;;;;;5024626;28;36361;-83
2022/10/05 07:11:19;;;;;;;3.10;1.85;;;15.90;99.90;;;;;;4992184;28;47187;-81
2022/10/05 07:14:13;;;;;;;3.65;1.70;;;15.90;99.90;;;;;;4995202;28;47394;-81
2022/10/05 07:16:58;;;;;;;2.20;1.73;;;15.90;99.90;;;;;;4991554;28;46985;-80
2022/10/05 07:19:39;;;;;;;2.33;1.92;;;15.90;99.90;;;;;;5020299;28;36396;-80
2022/10/05 07:22:08;;;;;;;2.15;1.75;;;15.90;99.90;;;;;;5018378;28;39814;-82
2022/10/05 07:24:47;;;;;;;3.72;1.75;;;15.90;99.90;;;;;;5024329;28;38335;-81
2022/10/05 07:27:23;;;;;;;3.15;2.15;;;15.80;99.90;;;;;;5016397;28;38156;-80
2022/10/05 07:30:12;;;;;;;4.10;2.33;;;15.80;99.90;;;;;;5011142;28;35918;-81
2022/10/05 07:33:19;;;;;;;4.30;2.17;;;15.80;99.90;;;;;;5007416;28;46903;-81
2022/10/05 07:39:14;;;;;;;3.83;2.38;;;15.90;99.90;;;;;;5010587;28;49241;-81
2022/10/05 07:41:50;;;;;;;6.05;2.38;;;15.80;99.90;;;;;;5017722;28;48087;-80
2022/10/05 07:44:25;;;;;;;3.92;2.03;;;15.80;99.90;;;;;;5008102;28;41474;-81
2022/10/05 07:47:18;;;;;;;2.28;2.00;;;15.90;99.90;;;;;;5022888;28;37625;-81
2022/10/05 07:49:58;;;;;;;4.75;2.20;;;15.90;99.90;;;;;;4994943;28;47098;-82
2022/10/05 07:52:38;;;;;;;7.20;2.00;;;15.90;99.90;;;;;;5006434;28;35877;-80
2022/10/05 07:55:20;;;;;;;3.22;2.40;;;15.90;99.90;;;;;;5017828;28;39250;-80
2022/10/05 07:58:05;;;;;;;4.78;2.38;;;15.90;99.90;;;;;;4990799;28;39174;-80
2022/10/05 08:00:52;;;;;;;4.07;2.25;;;15.90;99.90;;;;;;5018313;28;47217;-80
2022/10/05 08:03:37;;;;;;;2.65;2.00;;;15.90;99.90;;;;;;4998534;28;37690;-79
2022/10/05 08:06:05;;;;;;;4.57;2.22;;;15.90;99.90;;;;;;5020410;28;37440;-81
2022/10/05 08:09:12;;;;;;;2.42;2.20;;;15.90;99.90;;;;;;5008634;28;48935;-82
2022/10/05 08:12:02;;;;;;;5.55;2.20;;;15.90;99.90;;;;;;5003597;28;49099;-83
2022/10/05 08:14:57;;;;;;;2.97;1.90;;;15.90;99.90;;;;;;5022158;28;48490;-80
2022/10/05 08:17:50;;;;;;;2.58;2.00;;;16.00;99.90;;;;;;5020557;28;39054;-79
2022/10/05 08:20:37;;;;;;;3.35;2.00;;;16.00;99.90;;;;;;5010140;28;38166;-81
2022/10/05 08:23:22;;;;;;;4.50;1.88;;;16.00;99.90;;;;;;5005215;28;36863;-80
2022/10/05 08:26:10;;;;;;;2.25;1.95;;;16.00;99.90;;;;;;5019189;28;38276;-81
2022/10/05 08:29:09;;;;;;;4.30;1.63;;;16.10;99.90;;;;;;5013281;28;48003;-81
2022/10/05 08:31:38;;;;;;;1.85;1.60;;;16.20;99.90;;;;;;5022814;28;48891;-81
2022/10/05 08:34:38;;;;;;;2.30;1.33;;;16.20;99.90;;;;;;5012809;28;37891;-81
2022/10/05 08:37:12;;;;;;;2.45;1.48;;;16.20;99.90;;;;;;5025632;28;37753;-82
2022/10/05 08:39:41;;;;;;;1.77;1.40;;;16.30;99.90;;;;;;5002235;28;39125;-85
2022/10/05 08:42:26;;;;;;;3.67;1.55;;;16.30;99.90;;;;;;5009434;28;39302;-84
2022/10/05 08:45:01;;;;;;;1.73;1.20;;;16.40;99.90;;;;;;5009875;28;38056;-83
2022/10/05 08:47:30;;;;;;;1.85;1.10;;;16.40;99.90;;;;;;5021252;28;37516;-83
2022/10/05 08:50:14;;;;;;;2.05;1.08;;;16.50;99.90;;;;;;5023388;28;40231;-82
2022/10/05 08:53:05;;;;;;;2.42;1.23;;;16.50;99.90;;;;;;5020240;28;48983;-82
2022/10/05 08:56:02;;;;;;;2.30;1.60;;;16.50;99.90;;;;;;5017819;28;47109;-82
2022/10/05 08:58:43;;;;;;;3.65;1.55;;;16.50;99.90;;;;;;5018343;28;37300;-84
2022/10/05 09:01:23;;;;;;;2.90;1.90;;;16.50;99.90;;;;;;5009316;28;39275;-83
2022/10/05 09:04:21;;;;;;;4.53;1.60;;;16.40;99.90;;;;;;4989847;28;36811;-84
2022/10/05 09:07:00;;;;;;;2.83;1.20;;;16.50;99.90;;;;;;5009989;28;47480;-81
2022/10/05 09:10:03;;;;;;;4.22;1.63;;;16.50;99.90;;;;;;5011432;28;37715;-79
2022/10/05 09:13:11;;;;;;;4.93;1.48;;;16.50;99.90;;;;;;4994676;28;48391;-84
2022/10/05 09:16:20;;;;;;;2.50;1.20;;;16.60;99.90;;;;;;4953392;28;48585;-83
2022/10/05 09:19:05;;;;;;;1.63;1.00;;;16.70;99.90;;;;;;5007424;28;48983;-84
2022/10/05 09:21:43;;;;;;;2.65;1.00;;;16.60;99.90;;;;;;5001746;28;46974;-82
2022/10/05 09:24:12;;;;;;;1.67;0.85;;;16.70;99.90;;;;;;4982863;28;38520;-81
2022/10/05 09:27:08;;;;;;;3.05;0.73;;;16.70;99.90;;;;;;4997930;28;38854;-84
2022/10/05 09:29:50;;;;;;;1.83;0.93;;;16.80;99.90;;;;;;5017038;28;49136;-82
2022/10/05 09:32:35;;;;;;;4.60;0.90;;;16.80;99.90;;;;;;5012363;28;37592;-84
2022/10/05 09:35:14;;;;;;;3.45;1.10;;;16.90;99.90;;;;;;5013757;28;39154;-83
2022/10/05 09:38:19;;;;;;;1.42;1.08;;;16.90;99.90;;;;;;5015765;28;47343;-84
2022/10/05 09:41:07;;;;;;;4.80;1.10;;;16.80;99.90;;;;;;5010936;28;47425;-82
2022/10/05 09:43:39;;;;;;;3.20;1.30;;;16.80;99.90;;;;;;4990024;28;46907;-83
2022/10/05 09:46:15;;;;;;;5.07;1.52;;;16.80;99.90;;;;;;5000554;28;37984;-80
2022/10/05 09:48:55;;;;;;;4.63;1.60;;;16.80;99.90;;;;;;5008281;28;37248;-83
2022/10/05 09:51:33;;;;;;;5.78;1.70;;;16.80;99.90;;;;;;5028950;28;38626;-81
2022/10/05 09:54:20;;;;;;;3.35;1.70;;;16.70;99.90;;;;;;5024326;28;37710;-80
2022/10/05 09:56:46;;;;;;;2.85;1.77;;;16.80;99.90;;;;;;5033527;28;47929;-85
2022/10/05 09:59:41;;;;;;;2.55;1.42;;;16.70;99.90;;;;;;5009967;28;37772;-83
2022/10/05 10:02:12;;;;;;;3.65;2.10;;;16.70;99.90;;;;;;5023941;28;40365;-83
2022/10/05 10:05:00;;;;;;;6.68;1.98;;;16.70;99.90;;;;;;5002172;28;36315;-83
2022/10/05 10:07:57;;;;;;;3.13;1.60;;;16.70;99.90;;;;;;5000206;28;39526;-84
2022/10/05 10:10:42;;;;;;;5.05;2.05;;;16.60;99.90;;;;;;4991639;28;38517;-82
2022/10/05 10:13:44;;;;;;;4.15;2.22;;;16.60;99.90;;;;;;4999821;28;38491;-81
2022/10/05 10:16:41;;;;;;;6.30;2.00;;;16.60;99.90;;;;;;4996810;28;38351;-82
2022/10/05 10:19:50;;;;;;;3.45;2.10;;;16.60;99.90;;;;;;4988480;28;37391;-85
2022/10/05 10:22:48;;;;;;;6.25;2.42;;;16.60;99.90;;;;;;4998615;28;38392;-80
2022/10/05 10:25:51;;;;;;;5.10;2.60;;;16.60;99.90;;;;;;4986052;28;38749;-83
2022/10/05 10:28:57;;;;;;;5.25;3.17;;;16.60;99.90;;;;;;4984142;28;37470;-85
2022/10/05 10:31:58;;;;;;;4.13;2.40;;;16.60;99.90;;;;;;4986348;28;39268;-84
2022/10/05 10:34:58;;;;;;;4.82;2.90;;;16.70;99.90;;;;;;5009907;28;39224;-85
2022/10/05 10:37:33;;;;;;;6.40;2.72;;;16.70;99.90;;;;;;4981959;28;37266;-82
2022/10/05 10:40:35;;;;;;;6.07;2.58;;;16.80;99.90;;;;;;5008333;28;37063;-84
2022/10/05 10:43:24;;;;;;;3.30;2.55;;;16.80;99.90;;;;;;5003649;28;47180;-82
2022/10/05 10:46:05;;;;;;;13.32;2.50;;;16.90;99.90;;;;;;4979490;28;47207;-84
2022/10/05 10:49:09;;;;;;;4.55;2.42;;;16.80;99.90;;;;;;4981342;28;47274;-82
2022/10/05 10:52:10;;;;;;;5.45;2.58;;;16.90;99.90;;;;;;5001926;28;48568;-81
2022/10/05 10:54:52;;;;;;;9.90;3.00;;;17.00;99.90;;;;;;4983088;28;46983;-85
2022/10/05 10:57:18;;;;;;;5.75;2.75;;;17.00;99.90;;;;;;5014489;28;37582;-82
2022/10/05 10:59:54;;;;;;;12.18;3.42;;;17.00;99.90;;;;;;4996487;28;37963;-80
2022/10/05 11:02:47;;;;;;;4.38;3.13;;;17.00;99.90;;;;;;5010367;28;37198;-84
2022/10/05 11:05:51;;;;;;;8.75;2.53;;;17.00;99.90;;;;;;4999080;28;40436;-80
2022/10/05 11:08:45;;;;;;;5.63;2.85;;;17.00;99.90;;;;;;4997223;28;37298;-81
2022/10/05 11:11:26;;;;;;;7.45;3.08;;;17.10;99.90;;;;;;4996307;28;38003;-83
2022/10/05 11:14:28;;;;;;;7.45;3.08;;;17.10;99.90;;;;;;5000802;28;36200;-81
2022/10/05 11:16:57;;;;;;;6.70;2.83;;;17.10;99.90;;;;;;5007417;28;48053;-82
2022/10/05 11:19:39;;;;;;;9.85;2.97;;;17.20;99.90;;;;;;4994694;28;38292;-82
2022/10/05 11:22:30;;;;;;;6.82;2.85;;;17.20;99.90;;;;;;4976905;28;36912;-81
2022/10/05 11:25:24;;;;;;;9.65;3.50;;;17.10;99.90;;;;;;5002529;28;36305;-84
2022/10/05 11:28:27;;;;;;;8.05;2.75;;;17.20;99.90;;;;;;5009388;28;47069;-83
2022/10/05 11:31:22;;;;;;;5.75;2.65;;;17.20;99.90;;;;;;4986643;28;47098;-81
2022/10/05 11:34:17;;;;;;;8.77;3.35;;;17.20;99.90;;;;;;4999003;28;48549;-83
2022/10/05 11:37:04;;;;;;;3.25;2.60;;;17.20;99.90;;;;;;5004426;28;47700;-84
2022/10/05 11:40:06;;;;;;;3.40;2.80;;;17.30;99.90;;;;;;4990808;28;47334;-83
2022/10/05 11:43:00;;;;;;;5.15;2.53;;;17.30;99.90;;;;;;4982460;28;47818;-84
2022/10/05 11:45:35;;;;;;;8.98;2.88;;;17.30;99.90;;;;;;4983509;28;39826;-83
2022/10/05 11:48:22;;;;;;;4.78;3.05;;;17.40;99.90;;;;;;5009184;28;37106;-82
2022/10/05 11:51:09;;;;;;;7.47;2.72;;;17.40;99.90;;;;;;5005514;28;47106;-84
2022/10/05 11:53:56;;;;;;;6.55;2.75;;;17.40;99.90;;;;;;5006665;28;48330;-83
2022/10/05 11:56:37;;;;;;;8.63;2.70;;;17.40;99.90;;;;;;4986311;28;39644;-82
2022/10/05 11:59:29;;;;;;;6.22;2.78;;;17.40;99.90;;;;;;5006258;28;37373;-83
2022/10/05 12:02:30;;;;;;;5.38;2.85;;;17.40;99.90;;;;;;4988759;28;47508;-82
2022/10/05 12:05:11;;;;;;;5.78;2.83;;;17.50;99.90;;;;;;4982393;28;47100;-82
2022/10/05 12:08:07;;;;;;;4.00;2.72;;;17.50;99.90;;;;;;4988018;28;48571;-81
2022/10/05 12:10:51;;;;;;;4.68;2.30;;;17.50;99.90;;;;;;5004360;28;48904;-82
2022/10/05 12:13:33;;;;;;;3.75;2.42;;;17.70;99.90;;;;;;5004747;28;39803;-82
2022/10/05 12:16:15;;;;;;;3.45;2.60;;;17.80;99.90;;;;;;5005610;28;38473;-82
2022/10/05 12:19:05;;;;;;;5.60;2.60;;;17.70;99.90;;;;;;4988616;28;48566;-82
2022/10/05 12:22:02;;;;;;;3.35;2.63;;;17.60;99.90;;;;;;5004939;28;48512;-83
2022/10/05 12:24:34;;;;;;;6.05;2.50;;;17.60;99.90;;;;;;5003373;28;48208;-84
2022/10/05 12:27:14;;;;;;;3.28;2.22;;;17.60;99.90;;;;;;5001670;28;39904;-84
2022/10/05 12:30:02;;;;;;;5.63;2.65;;;17.60;99.90;;;;;;4998194;28;48593;-81
2022/10/05 12:32:40;;;;;;;5.38;2.50;;;17.70;99.90;;;;;;4988823;28;37008;-80
2022/10/05 12:35:21;;;;;;;4.28;2.40;;;17.60;99.90;;;;;;4988409;28;40668;-83
2022/10/05 12:37:53;;;;;;;7.82;2.22;;;17.70;99.90;;;;;;4988978;28;37277;-84
2022/10/05 12:40:42;;;;;;;3.22;2.00;;;17.60;99.90;;;;;;4987906;28;38158;-82
2022/10/05 12:43:33;;;;;;;4.45;2.15;;;17.70;99.90;;;;;;4987184;28;37751;-84
2022/10/05 12:46:19;;;;;;;4.88;2.22;;;17.70;99.90;;;;;;4993845;28;39011;-82
2022/10/05 12:49:14;;;;;;;6.13;2.28;;;17.70;99.90;;;;;;4966093;28;47774;-82
2022/10/05 12:51:59;;;;;;;6.68;2.22;;;17.70;99.90;;;;;;4983232;28;47257;-80
2022/10/05 12:54:38;;;;;;;3.13;2.30;;;17.70;99.90;;;;;;5005167;28;38250;-83
2022/10/05 12:57:21;;;;;;;3.30;2.03;;;17.70;99.90;;;;;;5004461;28;36478;-83
2022/10/05 13:00:05;;;;;;;4.00;2.00;;;17.70;99.90;;;;;;4988722;28;40168;-82
2022/10/05 13:02:45;;;;;;;5.57;2.10;;;17.70;99.90;;;;;;4989639;28;47160;-84
2022/10/05 13:05:20;;;;;;;2.92;2.15;;;17.60;99.90;;;;;;4983432;28;37293;-85
2022/10/05 13:07:52;;;;;;;3.92;2.28;;;17.70;99.90;;;;;;4999053;28;40816;-84
2022/10/05 13:10:45;;;;;;;5.68;2.35;;;17.70;99.90;;;;;;5016842;28;39103;-81
2022/10/05 13:13:11;;;;;;;4.45;2.10;;;17.70;99.90;;;;;;5004685;28;38584;-84
2022/10/05 13:15:52;;;;;;;4.63;2.30;;;17.70;99.90;;;;;;5008351;28;37903;-84
2022/10/05 13:18:57;;;;;;;5.20;2.20;;;17.80;99.90;;;;;;5005995;28;39132;-86
2022/10/05 13:21:45;;;;;;;5.60;2.17;;;17.60;99.90;;;;;;4989333;28;39168;-82
2022/10/05 13:24:52;;;;;;;9.82;2.13;;;17.60;99.90;;;;;;5006682;28;37722;-82
2022/10/05 13:27:28;;;;;;;5.00;1.60;;;17.80;99.90;;;;;;4941594;28;37031;-85
2022/10/05 13:30:12;;;;;;;4.93;1.80;;;17.90;99.90;;;;;;4929933;28;39837;-82
2022/10/05 13:32:45;;;;;;;4.22;1.60;;;18.00;99.90;;;;;;4968243;28;47092;-83
2022/10/05 13:35:35;;;;;;;5.40;1.27;;;18.10;99.90;;;;;;4991199;28;39266;-81
2022/10/05 13:38:24;;;;;;;8.15;1.30;;;18.10;99.90;;;;;;5001941;28;37894;-83
2022/10/05 13:40:52;;;;;;;5.10;1.20;;;18.00;99.90;;;;;;5001055;28;47076;-82
2022/10/05 13:43:42;;;;;;;3.40;1.10;;;18.10;99.90;;;;;;5007669;28;37692;-81
2022/10/05 13:46:46;;;;;;;5.80;1.15;;;18.10;99.90;;;;;;5002434;28;37928;-82
2022/10/05 13:49:42;;;;;;;7.93;1.58;;;18.00;99.90;;;;;;5000225;28;37484;-82
2022/10/05 13:52:27;;;;;;;2.67;1.13;;;18.00;99.90;;;;;;5006059;28;39516;-80
2022/10/05 13:54:53;;;;;;;7.93;1.50;;;18.00;99.90;;;;;;4988597;28;39933;-80
2022/10/05 13:57:52;;;;;;;3.38;1.38;;;18.00;99.90;;;;;;5000144;28;35984;-84
2022/10/05 14:00:21;;;;;;;6.88;1.65;;;18.00;99.90;;;;;;5000646;28;39149;-81
2022/10/05 14:02:50;;;;;;;6.10;1.52;;;17.90;99.90;;;;;;5004292;28;39896;-81
2022/10/05 14:05:23;;;;;;;5.68;1.75;;;17.80;99.90;;;;;;4990401;28;38219;-82
2022/10/05 14:08:01;;;;;;;5.00;1.92;;;17.80;99.90;;;;;;4992130;28;38201;-81
2022/10/05 14:10:38;;;;;;;7.68;1.65;;;17.80;99.90;;;;;;5002388;28;20074;-83
2022/10/05 14:13:22;;;;;;;4.65;1.83;;;17.80;99.90;;;;;;4988398;28;39608;-83
2022/10/05 14:16:13;;;;;;;4.97;1.83;;;17.80;99.90;;;;;;4991566;28;40027;-82
2022/10/05 14:18:53;;;;;;;3.00;1.90;;;17.90;99.90;;;;;;4990765;28;46923;-82
2022/10/05 14:21:25;;;;;;;11.68;1.90;;;17.80;99.90;;;;;;5004854;28;37992;-82
2022/10/05 14:23:52;;;;;;;5.75;1.98;;;17.80;99.90;;;;;;5008072;28;39614;-80
2022/10/05 14:26:36;;;;;;;6.90;2.47;;;17.80;99.90;;;;;;5004503;28;40083;-84